Time;durP1;ratioP1;P1;durP2;ratioP2;P2;SDS_P1;SDS_P2;PMS_P1;PMS_P2;Temp;Humidity;BMP_temperature;BMP_pressure;BME280_temperature;BME280_humidity;BME280_pressure;Samples;Min_cycle;Max_cycle;Signal;HPM_P1;HPM_P2
2022/10/25 00:01:50;;;;;;;3.20;1.20;;;;;;;;;;5053578;28;20190;-80
2022/10/25 00:04:16;;;;;;;1.97;1.30;;;;;;;;;;5045902;28;20215;-80
2022/10/25 00:06:42;;;;;;;1.47;1.10;;;;;;;;;;5046855;28;20252;-81
2022/10/25 00:09:08;;;;;;;3.50;1.40;;;;;;;;;;5049743;28;20654;-80
2022/10/25 00:11:35;;;;;;;4.47;1.40;;;;;;;;;;5033809;28;20198;-79
2022/10/25 00:14:04;;;;;;;1.60;1.10;;;;;;;;;;5042860;28;20233;-80
2022/10/25 00:16:32;;;;;;;2.57;1.20;;;;;;;;;;5026647;28;20220;-80
2022/10/25 00:18:58;;;;;;;4.20;1.40;;;;;;;;;;5058578;28;20179;-81
2022/10/25 00:21:25;;;;;;;1.63;1.10;;;;;;;;;;5051385;28;20176;-83
2022/10/25 00:23:51;;;;;;;1.90;1.10;;;;;;;;;;5044779;28;20200;-82
2022/10/25 00:26:18;;;;;;;3.67;1.30;;;;;;;;;;5047369;28;20217;-80
2022/10/25 00:28:44;;;;;;;1.93;1.10;;;;;;;;;;5051664;28;20232;-80
2022/10/25 00:31:14;;;;;;;2.30;1.17;;;;;;;;;;5036554;28;20202;-81
2022/10/25 00:33:41;;;;;;;1.50;0.90;;;;;;;;;;5049117;28;20190;-81
2022/10/25 00:36:18;;;;;;;3.27;1.33;;;;;;;;;;5050912;28;20262;-78
2022/10/25 00:38:45;;;;;;;1.73;1.20;;;;;;;;;;5040217;28;20181;-80
2022/10/25 00:41:12;;;;;;;2.03;1.20;;;;;;;;;;5047912;28;20182;-80
2022/10/25 00:43:49;;;;;;;1.83;1.20;;;;;;;;;;5065742;28;20325;-83
2022/10/25 00:46:18;;;;;;;2.80;1.00;;;;;;;;;;5048306;28;20236;-82
2022/10/25 00:48:54;;;;;;;1.97;1.17;;;;;;;;;;5039060;28;20179;-81
2022/10/25 00:51:21;;;;;;;2.07;1.10;;;;;;;;;;5050010;28;20178;-83
2022/10/25 00:53:48;;;;;;;5.77;1.20;;;;;;;;;;5042652;28;20186;-83
2022/10/25 00:56:19;;;;;;;1.93;1.10;;;;;;;;;;5048449;28;20245;-82
2022/10/25 00:58:46;;;;;;;2.20;1.33;;;;;;;;;;5038012;28;20183;-80
2022/10/25 01:01:14;;;;;;;2.93;1.43;;;;;;;;;;5049553;28;20178;-81
2022/10/25 01:03:42;;;;;;;3.43;1.20;;;;;;;;;;5051297;28;20308;-80
2022/10/25 01:06:12;;;;;;;2.67;1.30;;;;;;;;;;5049970;28;20194;-81
2022/10/25 01:08:38;;;;;;;2.73;1.60;;;;;;;;;;5050045;28;20713;-81
2022/10/25 01:11:05;;;;;;;4.87;1.40;;;;;;;;;;5048283;28;20246;-84
2022/10/25 01:13:31;;;;;;;2.90;1.40;;;;;;;;;;5052042;28;20181;-82
2022/10/25 01:16:08;;;;;;;2.90;1.10;;;;;;;;;;5051115;28;20216;-82
2022/10/25 01:18:42;;;;;;;3.80;1.70;;;;;;;;;;5042638;28;20177;-83
2022/10/25 01:21:31;;;;;;;1.83;1.10;;;;;;;;;;5048353;28;21094;-82
2022/10/25 01:24:06;;;;;;;4.67;2.90;;;;;;;;;;5063009;28;20193;-82
2022/10/25 01:26:55;;;;;;;3.17;2.00;;;;;;;;;;5061609;28;20170;-83
2022/10/25 01:29:27;;;;;;;7.13;1.80;;;;;;;;;;5052085;28;20186;-82
2022/10/25 01:31:59;;;;;;;3.03;1.57;;;;;;;;;;5061005;28;20193;-82
2022/10/25 01:34:28;;;;;;;6.17;1.70;;;;;;;;;;5060274;28;20296;-82
2022/10/25 01:37:03;;;;;;;4.63;1.53;;;;;;;;;;5035632;28;20190;-80
2022/10/25 01:39:31;;;;;;;3.47;1.60;;;;;;;;;;5044507;28;20184;-82
2022/10/25 01:42:05;;;;;;;3.27;1.80;;;;;;;;;;5053516;28;20189;-82
2022/10/25 01:44:52;;;;;;;2.77;1.30;;;;;;;;;;5052933;28;20307;-82
2022/10/25 01:47:38;;;;;;;3.40;1.43;;;;;;;;;;5046300;28;20186;-82
2022/10/25 01:50:12;;;;;;;3.70;1.67;;;;;;;;;;5048727;28;20209;-82
2022/10/25 01:52:38;;;;;;;3.00;1.40;;;;;;;;;;5048247;28;20191;-81
2022/10/25 01:55:07;;;;;;;1.80;1.30;;;;;;;;;;5038487;28;20211;-80
2022/10/25 01:57:54;;;;;;;2.40;1.30;;;;;;;;;;5037785;28;20183;-81
2022/10/25 02:00:21;;;;;;;2.00;1.30;;;;;;;;;;5040166;28;20170;-80
2022/10/25 02:02:58;;;;;;;4.30;1.53;;;;;;;;;;5037029;28;20186;-81
2022/10/25 02:05:33;;;;;;;2.80;1.60;;;;;;;;;;5045168;28;20624;-80
2022/10/25 02:08:05;;;;;;;2.30;1.30;;;;;;;;;;5046110;28;20274;-80
2022/10/25 02:10:43;;;;;;;3.13;1.87;;;;;;;;;;5042119;28;20688;-82
2022/10/25 02:13:09;;;;;;;6.13;2.67;;;;;;;;;;5038683;28;20194;-83
2022/10/25 02:15:40;;;;;;;7.20;3.33;;;;;;;;;;5038011;28;20214;-82
2022/10/25 02:18:10;;;;;;;3.63;1.90;;;;;;;;;;5045870;28;20212;-82
2022/10/25 02:20:36;;;;;;;4.60;1.70;;;;;;;;;;5045832;28;20220;-83
2022/10/25 02:23:04;;;;;;;5.30;1.60;;;;;;;;;;5045475;28;20178;-82
2022/10/25 02:25:32;;;;;;;3.93;1.50;;;;;;;;;;5046877;28;20202;-80
2022/10/25 02:28:00;;;;;;;4.47;1.60;;;;;;;;;;5037689;28;20217;-83
2022/10/25 02:30:27;;;;;;;2.73;1.30;;;;;;;;;;5044544;28;20712;-83
2022/10/25 02:32:53;;;;;;;3.67;1.50;;;;;;;;;;5034607;28;20210;-81
2022/10/25 02:35:19;;;;;;;2.37;1.37;;;;;;;;;;5048470;28;20217;-83
2022/10/25 02:37:45;;;;;;;1.77;1.30;;;;;;;;;;5046706;28;20532;-83
2022/10/25 02:40:11;;;;;;;2.53;1.23;;;;;;;;;;5046339;28;20883;-83
2022/10/25 02:42:38;;;;;;;2.33;1.57;;;;;;;;;;5047642;28;20192;-81
2022/10/25 02:45:04;;;;;;;2.87;1.40;;;;;;;;;;5044249;28;20210;-82
2022/10/25 02:47:30;;;;;;;5.03;2.00;;;;;;;;;;5048753;28;20268;-78
2022/10/25 02:49:56;;;;;;;4.67;1.93;;;;;;;;;;5043991;28;20650;-78
2022/10/25 02:52:22;;;;;;;3.17;1.50;;;;;;;;;;5045262;28;20178;-79
2022/10/25 02:54:48;;;;;;;2.50;1.70;;;;;;;;;;5042123;28;20225;-79
2022/10/25 02:57:15;;;;;;;2.90;1.53;;;;;;;;;;5036334;28;20760;-79
2022/10/25 02:59:41;;;;;;;4.33;1.90;;;;;;;;;;5033236;28;20185;-79
2022/10/25 03:02:07;;;;;;;5.00;2.23;;;;;;;;;;5048416;28;20178;-80
2022/10/25 03:04:33;;;;;;;3.73;1.87;;;;;;;;;;5044969;28;20197;-78
2022/10/25 03:06:59;;;;;;;4.73;1.80;;;;;;;;;;5051093;28;20201;-80
2022/10/25 03:09:25;;;;;;;2.37;1.70;;;;;;;;;;5036157;28;20253;-80
2022/10/25 03:11:51;;;;;;;2.60;1.40;;;;;;;;;;5047481;28;20185;-80
2022/10/25 03:14:18;;;;;;;5.23;1.77;;;;;;;;;;5047006;28;20217;-79
2022/10/25 03:16:44;;;;;;;2.57;1.37;;;;;;;;;;5045174;28;20171;-80
2022/10/25 03:19:10;;;;;;;3.60;1.50;;;;;;;;;;5047586;28;20182;-82
2022/10/25 03:21:36;;;;;;;2.40;1.23;;;;;;;;;;5047889;28;20222;-82
2022/10/25 03:24:02;;;;;;;3.27;1.70;;;;;;;;;;5044958;28;20297;-82
2022/10/25 03:26:28;;;;;;;2.37;1.20;;;;;;;;;;5042435;28;20185;-82
2022/10/25 03:28:54;;;;;;;6.37;1.50;;;;;;;;;;5044212;28;20193;-82
2022/10/25 03:31:21;;;;;;;3.90;1.50;;;;;;;;;;5047543;28;20196;-82
2022/10/25 03:33:47;;;;;;;3.63;1.43;;;;;;;;;;5043744;28;20212;-82
2022/10/25 03:36:13;;;;;;;4.07;1.67;;;;;;;;;;5040029;28;20205;-82
2022/10/25 03:38:39;;;;;;;2.77;1.60;;;;;;;;;;5047111;28;20268;-83
2022/10/25 03:41:05;;;;;;;2.57;1.60;;;;;;;;;;5042968;28;20170;-82
2022/10/25 03:43:32;;;;;;;4.10;1.60;;;;;;;;;;5031173;28;20186;-83
2022/10/25 03:45:58;;;;;;;4.03;1.60;;;;;;;;;;5045611;28;20209;-83
2022/10/25 03:48:24;;;;;;;2.80;1.50;;;;;;;;;;5045995;28;20193;-81
2022/10/25 03:50:51;;;;;;;3.70;1.50;;;;;;;;;;5028797;28;20981;-80
2022/10/25 03:53:17;;;;;;;4.53;1.50;;;;;;;;;;5044308;28;20701;-80
2022/10/25 03:55:43;;;;;;;3.33;1.67;;;;;;;;;;5047177;28;20295;-80
2022/10/25 03:58:09;;;;;;;3.53;1.50;;;;;;;;;;5049419;28;20186;-80
2022/10/25 04:00:36;;;;;;;3.43;1.80;;;;;;;;;;5044430;28;20680;-80
2022/10/25 04:03:02;;;;;;;4.27;1.67;;;;;;;;;;5045107;28;20189;-81
2022/10/25 04:05:29;;;;;;;3.77;1.67;;;;;;;;;;5043564;28;20212;-80
2022/10/25 04:07:56;;;;;;;4.10;1.70;;;;;;;;;;5045600;28;20201;-80
2022/10/25 04:10:22;;;;;;;4.60;1.60;;;;;;;;;;5052595;28;20209;-78
2022/10/25 04:12:48;;;;;;;4.15;1.52;;;;;;;;;;5046512;28;20439;-80
2022/10/25 04:15:15;;;;;;;4.07;1.73;;;;;;;;;;5052493;28;20229;-81
2022/10/25 04:17:41;;;;;;;5.47;1.40;;;;;;;;;;5047012;28;20190;-81
2022/10/25 04:20:07;;;;;;;3.93;1.60;;;;;;;;;;5052021;28;20654;-78
2022/10/25 04:22:33;;;;;;;4.23;1.60;;;;;;;;;;5050394;28;20186;-79
2022/10/25 04:25:00;;;;;;;4.60;1.80;;;;;;;;;;5048959;28;20225;-79
2022/10/25 04:27:26;;;;;;;3.97;1.60;;;;;;;;;;5048524;28;20187;-81
2022/10/25 04:29:52;;;;;;;3.17;1.57;;;;;;;;;;5032559;28;20261;-80
2022/10/25 04:32:18;;;;;;;2.00;1.50;;;;;;;;;;5033481;28;20265;-80
2022/10/25 04:34:44;;;;;;;4.10;1.50;;;;;;;;;;5041438;28;20246;-79
2022/10/25 04:37:10;;;;;;;3.23;1.70;;;;;;;;;;5045695;28;20182;-80
2022/10/25 04:39:36;;;;;;;6.77;1.80;;;;;;;;;;5053595;28;20182;-81
2022/10/25 04:42:03;;;;;;;4.20;1.67;;;;;;;;;;5051267;28;20186;-81
2022/10/25 04:44:29;;;;;;;3.57;1.70;;;;;;;;;;5051786;28;20296;-80
2022/10/25 04:46:55;;;;;;;3.90;1.80;;;;;;;;;;5035211;28;20615;-79
2022/10/25 04:49:21;;;;;;;4.53;1.83;;;;;;;;;;5050338;28;20202;-80
2022/10/25 04:51:47;;;;;;;4.23;1.70;;;;;;;;;;5052433;28;20186;-81
2022/10/25 04:54:14;;;;;;;4.70;1.70;;;;;;;;;;5051367;28;20209;-81
2022/10/25 04:56:40;;;;;;;6.00;1.77;;;;;;;;;;5051579;28;20215;-80
2022/10/25 04:59:06;;;;;;;4.77;1.90;;;;;;;;;;5049729;28;20205;-80
2022/10/25 05:01:32;;;;;;;4.73;1.70;;;;;;;;;;5046234;28;20197;-81
2022/10/25 05:03:59;;;;;;;5.50;2.07;;;;;;;;;;5044399;28;20609;-80
2022/10/25 05:06:26;;;;;;;3.93;1.70;;;;;;;;;;5032501;28;20186;-81
2022/10/25 05:08:53;;;;;;;4.70;2.13;;;;;;;;;;5047426;28;20531;-81
2022/10/25 05:11:20;;;;;;;4.80;2.03;;;;;;;;;;5048470;28;20627;-79
2022/10/25 05:13:47;;;;;;;3.50;1.90;;;;;;;;;;5044161;28;20458;-80
2022/10/25 05:16:16;;;;;;;4.57;1.90;;;;;;;;;;5046189;28;20220;-81
2022/10/25 05:18:46;;;;;;;5.60;2.10;;;;;;;;;;5048675;28;20181;-81
2022/10/25 05:21:12;;;;;;;5.65;2.15;;;;;;;;;;5043864;28;20466;-79
2022/10/25 05:23:39;;;;;;;5.60;1.90;;;;;;;;;;5041490;28;20179;-80
2022/10/25 05:26:12;;;;;;;2.90;1.83;;;;;;;;;;5048697;28;20251;-80
2022/10/25 05:28:39;;;;;;;6.13;2.00;;;;;;;;;;5048906;28;20898;-80
2022/10/25 05:31:08;;;;;;;5.33;1.90;;;;;;;;;;5048506;28;20186;-81
2022/10/25 05:33:34;;;;;;;3.30;1.70;;;;;;;;;;5026666;28;20235;-80
2022/10/25 05:36:01;;;;;;;4.33;2.10;;;;;;;;;;5033887;28;20300;-79
2022/10/25 05:38:28;;;;;;;4.17;2.00;;;;;;;;;;5045241;28;20202;-80
2022/10/25 05:40:54;;;;;;;4.20;1.90;;;;;;;;;;5044520;28;21081;-81
2022/10/25 05:43:21;;;;;;;3.57;1.70;;;;;;;;;;5046542;28;20190;-81
2022/10/25 05:45:47;;;;;;;5.47;1.92;;;;;;;;;;5043712;28;20429;-82
2022/10/25 05:48:13;;;;;;;5.63;2.10;;;;;;;;;;5039573;28;20220;-81
2022/10/25 05:50:45;;;;;;;2.87;2.17;;;;;;;;;;5050526;28;20177;-77
2022/10/25 05:53:11;;;;;;;8.70;2.80;;;;;;;;;;5047574;28;20269;-78
2022/10/25 05:55:37;;;;;;;7.33;2.13;;;;;;;;;;5047993;28;20597;-78
2022/10/25 05:58:03;;;;;;;4.53;2.10;;;;;;;;;;5046989;28;20332;-79
2022/10/25 06:00:30;;;;;;;3.93;2.03;;;;;;;;;;5045863;28;20189;-78
2022/10/25 06:02:59;;;;;;;9.57;5.27;;;;;;;;;;5044789;28;20194;-78
2022/10/25 06:05:26;;;;;;;6.50;3.10;;;;;;;;;;5046312;28;20229;-78
2022/10/25 06:07:52;;;;;;;5.30;2.57;;;;;;;;;;5041333;28;20201;-76
2022/10/25 06:10:18;;;;;;;4.83;2.20;;;;;;;;;;5038846;28;20209;-77
2022/10/25 06:12:44;;;;;;;7.10;2.20;;;;;;;;;;5047194;28;20285;-76
2022/10/25 06:15:10;;;;;;;3.37;2.17;;;;;;;;;;5043498;28;20228;-78
2022/10/25 06:17:36;;;;;;;5.10;2.47;;;;;;;;;;5046858;28;20568;-79
2022/10/25 06:20:03;;;;;;;3.57;2.17;;;;;;;;;;5047412;28;20181;-78
2022/10/25 06:22:29;;;;;;;5.63;2.60;;;;;;;;;;5040130;28;20211;-79
2022/10/25 06:24:55;;;;;;;5.10;2.43;;;;;;;;;;5042444;28;20275;-78
2022/10/25 06:27:21;;;;;;;4.20;2.13;;;;;;;;;;5036002;28;20177;-78
2022/10/25 06:29:47;;;;;;;5.67;2.40;;;;;;;;;;5046310;28;20196;-78
2022/10/25 06:32:13;;;;;;;6.67;3.23;;;;;;;;;;5029246;28;20182;-77
2022/10/25 06:34:39;;;;;;;6.33;3.13;;;;;;;;;;5041555;28;20207;-78
2022/10/25 06:37:05;;;;;;;6.10;2.40;;;;;;;;;;5038765;28;20175;-78
2022/10/25 06:39:32;;;;;;;6.00;2.90;;;;;;;;;;5043659;28;20190;-78
2022/10/25 06:41:58;;;;;;;4.80;2.40;;;;;;;;;;5049216;28;20178;-77
2022/10/25 06:44:24;;;;;;;6.23;2.80;;;;;;;;;;5045171;28;20239;-78
2022/10/25 06:46:50;;;;;;;4.90;2.87;;;;;;;;;;5041107;28;20240;-77
2022/10/25 06:49:16;;;;;;;8.27;3.60;;;;;;;;;;5047784;28;20207;-77
2022/10/25 06:51:42;;;;;;;5.57;2.43;;;;;;;;;;5041039;28;20189;-76
2022/10/25 06:54:09;;;;;;;5.63;2.50;;;;;;;;;;5047312;28;20209;-77
2022/10/25 06:56:35;;;;;;;4.97;2.07;;;;;;;;;;5017484;28;20179;-77
2022/10/25 06:59:02;;;;;;;5.50;2.20;;;;;;;;;;5045165;28;20711;-79
2022/10/25 07:01:28;;;;;;;6.80;2.50;;;;;;;;;;5044181;28;20685;-78
2022/10/25 07:03:55;;;;;;;6.63;2.77;;;;;;;;;;5042275;28;20265;-78
2022/10/25 07:06:25;;;;;;;4.50;2.63;;;;;;;;;;5049390;28;20186;-79
2022/10/25 07:08:55;;;;;;;4.93;2.43;;;;;;;;;;5041537;28;20178;-78
2022/10/25 07:11:22;;;;;;;7.10;3.73;;;;;;;;;;5047129;28;20177;-78
2022/10/25 07:13:49;;;;;;;5.60;2.97;;;;;;;;;;5055768;28;20186;-78
2022/10/25 07:16:16;;;;;;;8.20;2.40;;;;;;;;;;5043293;28;20177;-78
2022/10/25 07:18:42;;;;;;;5.73;2.10;;;;;;;;;;5046516;28;20174;-76
2022/10/25 07:21:11;;;;;;;7.97;2.60;;;;;;;;;;5046451;28;20212;-78
2022/10/25 07:23:41;;;;;;;6.70;2.23;;;;;;;;;;5043040;28;20193;-79
2022/10/25 07:26:11;;;;;;;5.63;2.63;;;;;;;;;;5045032;28;20678;-78
2022/10/25 07:28:38;;;;;;;4.70;2.03;;;;;;;;;;5044994;28;20181;-78
2022/10/25 07:31:04;;;;;;;3.63;1.83;;;;;;;;;;5040684;28;20187;-76
2022/10/25 07:33:30;;;;;;;4.80;2.07;;;;;;;;;;5044769;28;20181;-78
2022/10/25 07:35:57;;;;;;;3.47;2.00;;;;;;;;;;5041092;28;20308;-76
2022/10/25 07:38:23;;;;;;;5.83;2.27;;;;;;;;;;5036433;28;20181;-75
2022/10/25 07:40:54;;;;;;;8.00;2.00;;;;;;;;;;5044487;28;20185;-75
2022/10/25 07:43:20;;;;;;;7.57;2.10;;;;;;;;;;5034339;28;20175;-75
2022/10/25 07:45:49;;;;;;;4.83;1.80;;;;;;;;;;5044984;28;20721;-78
2022/10/25 07:48:15;;;;;;;4.93;2.33;;;;;;;;;;5048392;28;20198;-76
2022/10/25 07:50:42;;;;;;;4.20;2.07;;;;;;;;;;5045263;28;20852;-77
2022/10/25 07:53:08;;;;;;;6.67;1.90;;;;;;;;;;5031445;28;20188;-77
2022/10/25 07:55:34;;;;;;;3.73;1.90;;;;;;;;;;5044805;28;20275;-76
2022/10/25 07:58:01;;;;;;;7.73;2.37;;;;;;;;;;5040236;28;20175;-82
2022/10/25 08:00:27;;;;;;;7.20;2.03;;;;;;;;;;5046166;28;20201;-78
2022/10/25 08:02:53;;;;;;;3.10;1.73;;;;;;;;;;5020396;28;20178;-77
2022/10/25 08:05:19;;;;;;;4.93;2.00;;;;;;;;;;5043190;28;20206;-79
2022/10/25 08:07:45;;;;;;;5.53;2.17;;;;;;;;;;5042996;28;20209;-78
2022/10/25 08:10:11;;;;;;;8.23;2.43;;;;;;;;;;5054543;28;20198;-80
2022/10/25 08:12:38;;;;;;;10.07;2.90;;;;;;;;;;5052097;28;20560;-79
2022/10/25 08:15:04;;;;;;;7.93;2.33;;;;;;;;;;5035737;28;20213;-80
2022/10/25 08:17:30;;;;;;;4.20;2.00;;;;;;;;;;5036210;28;20214;-78
2022/10/25 08:19:56;;;;;;;8.13;2.13;;;;;;;;;;5051458;28;20617;-80
2022/10/25 08:22:23;;;;;;;7.30;2.77;;;;;;;;;;5047987;28;20196;-80
2022/10/25 08:24:49;;;;;;;4.73;1.80;;;;;;;;;;5020960;28;20252;-81
2022/10/25 08:27:15;;;;;;;6.03;2.00;;;;;;;;;;5017405;28;20224;-80
2022/10/25 08:29:42;;;;;;;5.30;2.00;;;;;;;;;;5049495;28;20808;-80
2022/10/25 08:32:08;;;;;;;4.97;2.00;;;;;;;;;;5033994;28;20277;-81
2022/10/25 08:34:34;;;;;;;5.53;1.80;;;;;;;;;;5048984;28;20228;-80
2022/10/25 08:37:00;;;;;;;7.50;1.83;;;;;;;;;;5047879;28;20213;-83
2022/10/25 08:39:26;;;;;;;3.70;2.00;;;;;;;;;;5036876;28;20215;-78
2022/10/25 08:41:57;;;;;;;7.70;2.23;;;;;;;;;;5036038;28;20182;-80
2022/10/25 08:44:45;;;;;;;3.67;1.87;;;;;;;;;;5034544;28;20670;-74
2022/10/25 08:47:17;;;;;;;7.90;2.10;;;;;;;;;;5030175;28;20185;-74
2022/10/25 08:49:43;;;;;;;3.83;2.13;;;;;;;;;;5045813;28;20224;-76
2022/10/25 08:52:17;;;;;;;5.70;2.33;;;;;;;;;;5039880;28;20190;-74
2022/10/25 08:54:44;;;;;;;4.03;1.80;;;;;;;;;;5043910;28;20209;-74
2022/10/25 08:57:22;;;;;;;4.77;1.80;;;;;;;;;;5049996;28;20499;-73
2022/10/25 09:00:06;;;;;;;7.73;2.20;;;;;;;;;;5050001;28;20193;-74
2022/10/25 09:02:32;;;;;;;5.40;2.00;;;;;;;;;;5049908;28;20224;-73
2022/10/25 09:04:58;;;;;;;4.20;1.80;;;;;;;;;;5034637;28;20206;-74
2022/10/25 09:07:34;;;;;;;4.47;1.90;;;;;;;;;;5047841;28;20284;-71
2022/10/25 09:10:21;;;;;;;4.70;2.07;;;;;;;;;;5038732;28;20563;-75
2022/10/25 09:12:50;;;;;;;4.93;1.87;;;;;;;;;;5043790;28;20243;-76
2022/10/25 09:15:26;;;;;;;5.97;2.00;;;;;;;;;;5048465;28;20233;-77
2022/10/25 09:17:53;;;;;;;4.77;1.97;;;;;;;;;;5049604;28;20170;-75
2022/10/25 09:20:31;;;;;;;5.10;1.83;;;;;;;;;;5049511;28;20213;-75
2022/10/25 09:23:03;;;;;;;6.37;2.00;;;;;;;;;;5049673;28;20225;-74
2022/10/25 09:25:32;;;;;;;6.37;1.80;;;;;;;;;;5049851;28;20233;-75
2022/10/25 09:27:59;;;;;;;6.73;1.70;;;;;;;;;;5047430;28;20193;-71
2022/10/25 09:30:26;;;;;;;4.80;1.90;;;;;;;;;;5048267;28;20867;-75
2022/10/25 09:33:00;;;;;;;5.87;1.80;;;;;;;;;;5046924;28;20222;-74
2022/10/25 09:35:35;;;;;;;4.77;1.73;;;;;;;;;;5047153;28;20290;-73
2022/10/25 09:38:05;;;;;;;5.60;1.70;;;;;;;;;;5046969;28;20260;-74
2022/10/25 09:40:41;;;;;;;5.27;2.20;;;;;;;;;;5041394;28;20197;-74
2022/10/25 09:43:15;;;;;;;4.93;1.70;;;;;;;;;;5031947;28;20171;-74
2022/10/25 09:45:44;;;;;;;7.30;2.10;;;;;;;;;;5033430;28;20201;-74
2022/10/25 09:48:15;;;;;;;4.07;1.70;;;;;;;;;;5049303;28;20825;-76
2022/10/25 09:51:00;;;;;;;6.97;1.90;;;;;;;;;;5049446;28;20493;-74
2022/10/25 09:53:26;;;;;;;4.07;1.87;;;;;;;;;;5049121;28;20186;-75
2022/10/25 09:55:57;;;;;;;9.70;2.40;;;;;;;;;;5048448;28;20209;-77
2022/10/25 09:58:24;;;;;;;5.03;2.00;;;;;;;;;;5048996;28;20220;-75
2022/10/25 10:00:51;;;;;;;5.83;1.80;;;;;;;;;;5049097;28;20197;-74
2022/10/25 10:03:18;;;;;;;4.07;1.87;;;;;;;;;;5048818;28;20260;-75
2022/10/25 10:05:47;;;;;;;5.67;1.73;;;;;;;;;;5048618;28;20627;-74
2022/10/25 10:08:13;;;;;;;7.13;1.93;;;;;;;;;;5048681;28;20218;-75
2022/10/25 10:10:39;;;;;;;5.57;1.97;;;;;;;;;;5047967;28;20328;-74
2022/10/25 10:13:15;;;;;;;5.30;1.93;;;;;;;;;;5029360;28;20182;-75
2022/10/25 10:15:48;;;;;;;5.20;1.60;;;;;;;;;;5028415;28;20206;-74
2022/10/25 10:18:31;;;;;;;8.57;2.50;;;;;;;;;;5028690;28;20178;-75
2022/10/25 10:21:03;;;;;;;7.37;2.00;;;;;;;;;;5028422;28;20174;-74
2022/10/25 10:23:31;;;;;;;7.50;2.10;;;;;;;;;;5028522;28;20603;-75
2022/10/25 10:25:59;;;;;;;12.83;2.10;;;;;;;;;;5047411;28;20209;-75
2022/10/25 10:28:26;;;;;;;5.20;2.17;;;;;;;;;;5048322;28;20162;-76
2022/10/25 10:30:53;;;;;;;6.27;2.20;;;;;;;;;;5048282;28;20220;-75
2022/10/25 10:33:20;;;;;;;7.83;2.00;;;;;;;;;;5034959;28;20190;-74
2022/10/25 10:35:46;;;;;;;6.10;2.17;;;;;;;;;;5027815;28;20210;-76
2022/10/25 10:38:13;;;;;;;5.53;2.00;;;;;;;;;;5044331;28;20264;-75
2022/10/25 10:40:40;;;;;;;5.53;1.70;;;;;;;;;;5049440;28;20183;-75
2022/10/25 10:43:24;;;;;;;3.47;1.37;;;;;;;;;;5031222;28;20175;-75
2022/10/25 10:45:51;;;;;;;5.03;1.77;;;;;;;;;;5044768;28;20220;-76
2022/10/25 10:48:21;;;;;;;6.47;1.60;;;;;;;;;;5042985;28;20181;-74
2022/10/25 10:50:49;;;;;;;5.47;1.70;;;;;;;;;;5040545;28;20196;-74
2022/10/25 10:53:24;;;;;;;6.67;1.80;;;;;;;;;;5029219;28;20263;-75
2022/10/25 10:55:50;;;;;;;5.37;1.60;;;;;;;;;;5045385;28;20236;-74
2022/10/25 10:58:24;;;;;;;3.67;1.70;;;;;;;;;;5046907;28;20188;-75
2022/10/25 11:00:52;;;;;;;7.53;2.07;;;;;;;;;;5037820;28;20182;-71
2022/10/25 11:03:54;;;;;;;5.07;1.97;;;;;;;;;;5047310;28;20177;-76
2022/10/25 11:06:23;;;;;;;7.97;1.70;;;;;;;;;;4971470;28;20200;-77
2022/10/25 11:09:03;;;;;;;3.87;1.83;;;;;;;;;;5032753;28;20289;-87
2022/10/25 11:11:29;;;;;;;7.73;1.70;;;;;;;;;;5037605;28;20184;-73
2022/10/25 11:13:56;;;;;;;5.80;1.70;;;;;;;;;;5044552;28;20489;-75
2022/10/25 11:16:31;;;;;;;5.23;1.57;;;;;;;;;;5045926;28;20182;-75
2022/10/25 11:19:16;;;;;;;4.03;1.60;;;;;;;;;;5042851;28;20185;-75
2022/10/25 11:21:43;;;;;;;6.90;1.70;;;;;;;;;;5041102;28;20247;-75
2022/10/25 11:24:21;;;;;;;4.50;1.77;;;;;;;;;;5047366;28;20281;-75
2022/10/25 11:27:08;;;;;;;5.40;1.90;;;;;;;;;;5037124;28;20186;-74
2022/10/25 11:29:41;;;;;;;6.17;2.87;;;;;;;;;;5039735;28;20197;-74
2022/10/25 11:32:17;;;;;;;5.17;2.00;;;;;;;;;;5050395;28;20182;-74
2022/10/25 11:35:01;;;;;;;5.67;1.70;;;;;;;;;;5050576;28;20217;-73
2022/10/25 11:37:36;;;;;;;6.03;1.83;;;;;;;;;;5044966;28;20184;-74
2022/10/25 11:40:08;;;;;;;6.40;1.70;;;;;;;;;;5040342;28;20666;-74
2022/10/25 11:42:46;;;;;;;4.03;2.03;;;;;;;;;;5047000;28;20190;-74
2022/10/25 11:45:19;;;;;;;7.27;2.27;;;;;;;;;;5044525;28;20214;-75
2022/10/25 11:48:09;;;;;;;5.90;1.90;;;;;;;;;;5031685;28;20175;-74
2022/10/25 11:50:45;;;;;;;7.27;1.60;;;;;;;;;;5049703;28;20196;-74
2022/10/25 11:53:23;;;;;;;4.47;1.57;;;;;;;;;;5051529;28;20182;-74
2022/10/25 11:55:53;;;;;;;4.63;1.70;;;;;;;;;;5031052;28;20272;-74
2022/10/25 11:58:40;;;;;;;2.80;1.57;;;;;;;;;;5050162;28;20446;-74
2022/10/25 12:01:18;;;;;;;5.17;1.63;;;;;;;;;;5051119;28;20188;-73
2022/10/25 12:04:03;;;;;;;4.70;1.47;;;;;;;;;;5048043;28;20181;-74
2022/10/25 12:06:48;;;;;;;4.43;1.60;;;;;;;;;;5038677;28;20251;-74
2022/10/25 12:09:26;;;;;;;6.97;2.10;;;;;;;;;;5031343;28;20186;-74
2022/10/25 12:12:14;;;;;;;4.00;1.50;;;;;;;;;;5043245;28;20230;-74
2022/10/25 12:14:43;;;;;;;2.87;1.30;;;;;;;;;;5019437;28;20373;-74
2022/10/25 12:17:22;;;;;;;3.80;1.30;;;;;;;;;;5019306;28;20190;-78
2022/10/25 12:19:50;;;;;;;4.73;1.33;;;;;;;;;;5043854;28;20260;-81
2022/10/25 12:22:39;;;;;;;2.67;1.50;;;;;;;;;;5031750;28;20190;-81
2022/10/25 12:25:18;;;;;;;6.43;1.30;;;;;;;;;;5035251;28;20218;-82
2022/10/25 12:27:45;;;;;;;4.27;1.40;;;;;;;;;;5033160;28;20311;-82
2022/10/25 12:30:16;;;;;;;5.33;1.70;;;;;;;;;;5045149;28;20186;-80
2022/10/25 12:32:46;;;;;;;5.87;1.50;;;;;;;;;;5064310;28;20209;-82
2022/10/25 12:35:16;;;;;;;3.47;1.53;;;;;;;;;;5016805;28;20255;-82
2022/10/25 12:37:44;;;;;;;2.03;1.30;;;;;;;;;;5050123;28;20193;-82
2022/10/25 12:40:18;;;;;;;5.57;1.83;;;;;;;;;;5033112;28;20217;-82
2022/10/25 12:42:45;;;;;;;4.20;1.50;;;;;;;;;;5046835;28;20181;-81
2022/10/25 12:45:29;;;;;;;5.37;1.80;;;;;;;;;;5039809;28;20256;-81
2022/10/25 12:48:01;;;;;;;4.83;1.57;;;;;;;;;;5046134;28;20605;-80
2022/10/25 12:50:27;;;;;;;4.53;1.50;;;;;;;;;;5051091;28;20182;-82
2022/10/25 12:53:12;;;;;;;3.47;1.53;;;;;;;;;;5051321;28;20189;-75
2022/10/25 12:55:53;;;;;;;7.00;1.77;;;;;;;;;;5046765;28;20209;-76
2022/10/25 12:58:36;;;;;;;5.80;1.53;;;;;;;;;;5045517;28;20268;-75
2022/10/25 13:01:20;;;;;;;4.53;1.40;;;;;;;;;;5046481;28;20174;-75
2022/10/25 13:04:05;;;;;;;4.03;1.30;;;;;;;;;;5048680;28;20748;-76
2022/10/25 13:06:39;;;;;;;6.30;1.50;;;;;;;;;;5043379;28;20238;-76
2022/10/25 13:09:10;;;;;;;4.77;1.70;;;;;;;;;;5048749;28;20200;-76
2022/10/25 13:11:38;;;;;;;5.60;1.60;;;;;;;;;;5040593;28;20186;-77
2022/10/25 13:14:12;;;;;;;3.13;1.37;;;;;;;;;;5043915;28;20205;-75
2022/10/25 13:16:38;;;;;;;4.83;1.23;;;;;;;;;;5037414;28;20193;-75
2022/10/25 13:19:13;;;;;;;4.77;1.60;;;;;;;;;;5046656;28;20296;-76
2022/10/25 13:21:51;;;;;;;4.83;1.40;;;;;;;;;;5050574;28;20181;-77
2022/10/25 13:24:37;;;;;;;3.07;1.63;;;;;;;;;;5040927;28;20209;-76
2022/10/25 13:27:13;;;;;;;4.77;1.23;;;;;;;;;;5038356;28;20255;-76
2022/10/25 13:29:47;;;;;;;5.47;1.67;;;;;;;;;;5051239;28;20189;-75
2022/10/25 13:32:18;;;;;;;5.37;1.40;;;;;;;;;;5039517;28;20214;-75
2022/10/25 13:34:44;;;;;;;3.87;1.60;;;;;;;;;;5042138;28;20275;-75
2022/10/25 13:37:34;;;;;;;5.33;1.77;;;;;;;;;;5042414;28;20273;-75
2022/10/25 13:40:02;;;;;;;2.80;1.33;;;;;;;;;;5031016;28;20194;-75
2022/10/25 13:42:37;;;;;;;5.70;1.50;;;;;;;;;;5044701;28;20193;-76
2022/10/25 13:45:03;;;;;;;5.83;1.60;;;;;;;;;;5046290;28;20255;-76
2022/10/25 13:47:33;;;;;;;5.77;1.80;;;;;;;;;;5066366;28;20190;-75
2022/10/25 13:50:00;;;;;;;5.33;1.80;;;;;;;;;;5046955;28;20206;-75
2022/10/25 13:52:26;;;;;;;2.83;1.57;;;;;;;;;;5047329;28;20276;-74
2022/10/25 13:54:56;;;;;;;4.17;1.70;;;;;;;;;;5044903;28;20240;-75
2022/10/25 13:57:45;;;;;;;3.97;2.00;;;;;;;;;;5046177;28;20182;-77
2022/10/25 14:00:25;;;;;;;4.57;1.70;;;;;;;;;;5041943;28;20921;-75
2022/10/25 14:03:11;;;;;;;3.93;1.60;;;;;;;;;;5043743;28;20190;-75
2022/10/25 14:06:04;;;;;;;5.20;1.83;;;;;;;;;;5044117;28;20212;-76
2022/10/25 14:08:36;;;;;;;5.70;1.63;;;;;;;;;;5039821;28;20263;-74
2022/10/25 14:11:08;;;;;;;4.70;1.63;;;;;;;;;;5045455;28;20221;-75
2022/10/25 14:13:46;;;;;;;3.87;1.60;;;;;;;;;;5043266;28;20570;-75
2022/10/25 14:16:19;;;;;;;3.97;1.63;;;;;;;;;;5039192;28;20245;-75
2022/10/25 14:18:46;;;;;;;7.13;1.80;;;;;;;;;;5044477;28;20189;-76
2022/10/25 14:21:12;;;;;;;4.73;1.60;;;;;;;;;;5049570;28;20181;-75
2022/10/25 14:23:39;;;;;;;3.50;1.60;;;;;;;;;;5046954;28;20655;-75
2022/10/25 14:26:12;;;;;;;5.40;1.77;;;;;;;;;;5038357;28;20215;-74
2022/10/25 14:28:39;;;;;;;6.00;1.80;;;;;;;;;;5046505;28;20516;-74
2022/10/25 14:31:06;;;;;;;5.13;1.73;;;;;;;;;;5032202;28;20597;-75
2022/10/25 14:33:37;;;;;;;3.57;1.40;;;;;;;;;;5041248;28;20177;-75
2022/10/25 14:36:11;;;;;;;5.97;1.70;;;;;;;;;;5048456;28;20593;-75
2022/10/25 14:38:48;;;;;;;5.47;1.70;;;;;;;;;;5045912;28;20201;-75
2022/10/25 14:41:19;;;;;;;7.83;1.80;;;;;;;;;;5049273;28;20169;-75
2022/10/25 14:43:46;;;;;;;5.37;1.80;;;;;;;;;;5048480;28;20181;-75
2022/10/25 14:46:14;;;;;;;3.70;1.70;;;;;;;;;;5041177;28;20189;-75
2022/10/25 14:48:41;;;;;;;4.93;2.07;;;;;;;;;;5039951;28;20186;-75
2022/10/25 14:51:11;;;;;;;4.37;1.73;;;;;;;;;;5047129;28;20193;-75
2022/10/25 14:53:47;;;;;;;4.87;2.10;;;;;;;;;;5058449;28;20183;-75
2022/10/25 14:56:18;;;;;;;10.47;2.30;;;;;;;;;;5040024;28;20716;-75
2022/10/25 14:58:44;;;;;;;16.97;2.50;;;;;;;;;;5038963;28;20178;-74
2022/10/25 15:01:11;;;;;;;26.00;2.97;;;;;;;;;;5039370;28;20181;-75